AirNav   Air Wisconsin Up To $57,000 Bonus
 
 639 users online  

T95 Bay Electric Supply Heliport
League City, Texas, USA

GOING TO LEAGUE CITY?


FAA INFORMATION EFFECTIVE 11 AUGUST 2022

Location

FAA Identifier: T95
Lat/Long: 29-29-17.8360N 095-06-26.7490W
29-29.297267N 095-06.445817W
29.4882878,-95.1074303
(estimated)
Elevation: 26 ft. / 8 m (estimated)
Variation: 06E (1985)
From city: 3 miles SW of LEAGUE CITY, TX
Time zone: UTC -5 (UTC -6 during Standard Time)
Zip code: 77573

Heliport Operations

Heliport use: Open to the public
Activation date: 03/1988
Control tower: no
ARTCC: HOUSTON CENTER
FSS: MONTGOMERY COUNTY FLIGHT SERVICE STATION
NOTAMs facility: CXO (NOTAM-D service available)
Attendance: UNATNDD
Wind indicator: yes
Segmented circle: no
Lights: SS-SR

Heliport Communications

CTAF: 122.9
WX ASOS at LVJ (7 nm W): 118.525 (281-992-1853)
WX AWOS-3 at EFD (8 nm N): 135.575 (713-847-4430)
WX AWOS-3PT at T41 (11 nm N): 120.275 (281-471-2206)
WX ASOS at HOU (13 nm NW): PHONE 713-847-1462
WX ASOS at GLS (19 nm SE): 123.950 (409-740-5483)
WX AWOS-3 at AXH (19 nm W): 123.625 (281-431-6572)

Nearby radio navigation aids

VOR radial/distance  VOR name  Freq  Var
VUHr310/18.2SCHOLES VOR/DME113.0006E
MHFr252/19.1TRINITY VOR/DME113.6007E
IAHr151/30.7HUMBLE VORTAC116.6005E

Heliport Services

Runway Information

Helipad H1

Dimensions: 90 x 90 ft. / 27 x 27 m
Surface: concrete, in good condition
Runway edge lights: PERI
Traffic pattern: leftleft
Markings: basic, in fair condition

Heliport Ownership and Management from official FAA records

Ownership: Privately-owned
Owner: BAY ELECTRIC SUPPLY INC
PO BOX 38
LEAGUE, TX 77573
Phone 281-332-3466
Manager: ROBIN PURYEAR
PO BOX 38
LEAGUE, TX 77573
Phone 281-332-3466

Heliport Operational Statistics

Aircraft operations: 18/year *
100% transient general aviation
* for 12-month period ending 31 December 2016

Additional Remarks

A52-H1 197 FT POWER LINE 527 FT NORTH; 35 FT BUILDING 117 FT EAST; 10 FT ROAD 15 FT SOUTH; 13 FT ROAD 130 FT WEST.
A57-H1 APCH RATIO TO NORTH 2:1; TO EAST 3:1; TO SOUTH 1:1; TO WEST 10:1.
FOR CD CTC HOUSTON APCH AT 281-443-5844 TO CNL IFR CALL 281-443-5888.
197 FT ELECTRIC TRANSMISSION LINES AND ELECTRIC POWER LINES NORTH OF LANDING PAD, CLOCKWISE FROM 270 DEG. TO 085 DEG, NOT MARKED OR LIGHTED.

Instrument Procedures

There are no published instrument procedures at T95.

Some nearby airports with instrument procedures:

KLVJ - Pearland Regional Airport (7 nm W)
KEFD - Ellington Airport (8 nm N)
T41 - La Porte Municipal Airport (11 nm N)
KHOU - William P Hobby Airport (13 nm NW)
KGLS - Scholes International Airport at Galveston (19 nm SE)
KAXH - Houston Southwest Airport (19 nm W)
KHPY - Baytown Airport (20 nm NE)
 
Loc | Ops | Rwys | IFR | FBO | Links
Com | Nav | Svcs | Stats | Notes
Area around T95 (Bay Electric Supply Heliport)
 
Road maps at: MapQuest Bing Google
 
Aerial photo
No photo
 
Sectional chart

 
Airport distance calculator
Flying to Bay Electric Supply Heliport? Find the distance to fly.

From to T95

Sunrise and sunset
Times for 17-Aug-2022
 Local
(UTC-5)
 Zulu
(UTC)
Morning civil twilight06:2611:26
Sunrise06:5111:51
Sunset19:5800:58
Evening civil twilight20:2301:23

Current date and time
Zulu (UTC)  17-Aug-2022 07:04:24
Local (UTC-5)  17-Aug-2022 02:04:24
 
METAR
KEFD 
7nm NW 
170654Z 20005KT 10SM FEW034 26/24 A2993
KLVJ 
8nm W 
170653Z AUTO 00000KT 10SM CLR 25/23 A2994 RMK AO2 SLP139 T02500233
KT41 
11nm N 
170655Z AUTO 23005KT 10SM CLR 26/ A2994 RMK AO2 T0263////
KHOU 
13nm NW 
170653Z 22005KT 10SM FEW035 FEW250 27/24 A2993 RMK AO2 SLP139 T02670239
KGLS 
18nm SE 
170652Z AUTO 20009KT 10SM CLR 30/24 A2994 RMK AO2 SLP138 T03000244
KAXH 
19nm W 
170535Z AUTO 00000KT 10SM CLR 25/24 A2996 RMK AO2 T02460238
TAF
KEFD 
7nm NW 
170400Z 1704/1810 VRB06KT 8000 BR SCT011 QNH2988INS BECMG 1710/1711 VRB06KT 8000 BR SCT011 QNH2994INS BECMG 1715/1716 VRB06KT 9999 NSW SCT019 QNH2988INS TX34/1721Z TN25/1712Z
KHOU 
13nm NW 
170520Z 1706/1806 20006KT P6SM SCT250 FM170900 VRB03KT P6SM FEW020 SCT250 FM171500 24006KT P6SM FEW040 SCT250 FM172000 19008KT P6SM SCT070 SCT250 FM180300 VRB04KT P6SM FEW030
KGLS 
18nm SE 
170520Z 1706/1806 19008KT P6SM SKC FM171200 22009KT P6SM FEW025 SCT250 FM171800 18012G18KT P6SM FEW040 SCT250 FM180500 19010KT P6SM FEW020 SCT250
NOTAMs
Click for the latest NOTAMs
NOTAMs are issued by the DoD/FAA and will open in a separate window not controlled by AirNav.

 

 
 

Would you like to see your business listed on this page?

 If your business provides an interesting product or service to pilots, flight crews, aircraft, or users of the Bay Electric Supply Heliport, you should consider listing it here.  To start the listing process, click on the button below
 
Add a business
 

Other Pages about Bay Electric Supply Heliport

Update a link
 
Copyright © AirNav, LLC. All rights reserved. Privacy Policy  Contact